Aviation Digital Data Service (ADDS)

Output produced by METARs form (2000 UTC 08 August 2020)
found at http://www.aviationweather.gov/metar/data/
 
KDRO 081953Z AUTO 29011G21KT 10SM CLR 30/M02 A3030 RMK AO2 SLP164 T03001017
KDRO 081736Z 0818/0918 27006KT P6SM FEW150 FEW250 
     FM082100 25013G21KT P6SM FEW120 SCT250 
     FM090200 30008KT P6SM FEW250 
     FM090600 33004KT P6SM SKC
       
KFMN 081953Z 28015G22KT 10SM CLR 33/M01 A3021 RMK AO2 PK WND 26027/1918 SLP151 T03331011
KFMN 081736Z 0818/0918 24007KT P6SM SKC 
     FM081900 27011G19KT P6SM FEW120 
     FM090200 30008KT P6SM SCT120 
     FM090600 VRB05KT P6SM FEW120 
     FM091700 23005KT P6SM FEW120